createdAt,value
2022-07-29T00:01:42.651Z,5.70
2022-07-29T00:04:44.683Z,10.70
2022-07-29T00:07:46.678Z,4.68
2022-07-29T00:10:48.622Z,7.35
2022-07-29T00:13:51.098Z,5.88
2022-07-29T00:16:53.222Z,8.27
2022-07-29T00:19:55.247Z,5.65
2022-07-29T00:22:57.170Z,7.18
2022-07-29T00:25:59.123Z,5.40
2022-07-29T00:29:32.387Z,7.25
2022-07-29T00:32:24.306Z,4.45
2022-07-29T00:35:45.439Z,5.13
2022-07-29T00:38:48.197Z,5.38
2022-07-29T00:41:50.942Z,12.10
2022-07-29T00:44:52.838Z,6.90
2022-07-29T00:47:54.850Z,5.53
2022-07-29T00:50:59.346Z,7.40
2022-07-29T00:54:01.313Z,8.25
2022-07-29T00:57:03.335Z,9.98
2022-07-29T01:00:11.426Z,6.03
2022-07-29T01:03:13.805Z,7.05
2022-07-29T01:06:18.146Z,5.33
2022-07-29T01:09:23.656Z,6.07
2022-07-29T01:12:45.725Z,10.00
2022-07-29T01:15:54.758Z,8.52
2022-07-29T01:19:08.590Z,7.57
2022-07-29T01:22:38.201Z,7.32
2022-07-29T01:26:11.723Z,9.75
2022-07-29T01:29:36.036Z,5.00
2022-07-29T01:32:44.183Z,6.00
2022-07-29T01:35:47.169Z,7.07
2022-07-29T01:38:57.125Z,7.97
2022-07-29T01:42:11.148Z,8.15
2022-07-29T01:45:31.918Z,4.72
2022-07-29T01:48:46.847Z,8.02
2022-07-29T01:52:14.197Z,7.80
2022-07-29T01:55:26.163Z,10.35
2022-07-29T01:58:30.993Z,5.60
2022-07-29T02:01:35.311Z,7.75
2022-07-29T02:04:38.936Z,5.07
2022-07-29T02:07:43.926Z,8.38
2022-07-29T02:10:46.631Z,5.88
2022-07-29T02:13:49.978Z,10.57
2022-07-29T02:20:00.914Z,8.93
2022-07-29T02:23:04.036Z,8.40
2022-07-29T02:26:08.363Z,7.72
2022-07-29T02:29:12.851Z,6.65
2022-07-29T02:32:16.927Z,6.82
2022-07-29T02:35:20.921Z,10.18
2022-07-29T02:38:43.468Z,7.70
2022-07-29T02:41:51.186Z,7.85
2022-07-29T02:44:53.238Z,6.03
2022-07-29T02:47:59.032Z,5.25
2022-07-29T02:51:09.347Z,6.53
2022-07-29T02:55:07.861Z,9.35
2022-07-29T02:58:31.400Z,9.45
2022-07-29T03:01:34.963Z,8.90
2022-07-29T03:04:37.978Z,7.53
2022-07-29T03:07:41.310Z,5.15
2022-07-29T03:13:47.066Z,7.80
2022-07-29T03:16:50.137Z,8.20
2022-07-29T03:19:52.527Z,7.43
2022-07-29T03:22:54.412Z,8.77
2022-07-29T03:25:56.893Z,7.30
2022-07-29T03:28:59.106Z,9.00
2022-07-29T03:32:07.340Z,4.15
2022-07-29T03:35:10.786Z,8.50
2022-07-29T03:38:12.950Z,7.55
2022-07-29T03:41:16.245Z,18.13
2022-07-29T03:44:26.188Z,7.28
2022-07-29T03:47:48.017Z,9.75
2022-07-29T03:50:53.184Z,8.43
2022-07-29T03:53:55.156Z,6.57
2022-07-29T03:57:01.136Z,7.95
2022-07-29T04:00:06.194Z,7.63
2022-07-29T04:03:10.767Z,6.03
2022-07-29T04:06:13.975Z,7.15
2022-07-29T04:09:15.953Z,4.85
2022-07-29T04:12:17.966Z,6.38
2022-07-29T04:15:20.192Z,6.15
2022-07-29T04:18:22.134Z,7.18
2022-07-29T04:21:24.193Z,6.50
2022-07-29T04:24:26.442Z,8.98
2022-07-29T04:27:28.411Z,6.07
2022-07-29T04:30:31.957Z,6.20
2022-07-29T04:33:34.392Z,6.13
2022-07-29T04:36:36.388Z,9.00
2022-07-29T04:39:38.320Z,7.50
2022-07-29T04:42:46.238Z,7.80
2022-07-29T04:45:48.580Z,6.88
2022-07-29T04:48:50.654Z,6.10
2022-07-29T04:51:52.642Z,8.20
2022-07-29T04:54:54.535Z,7.97
2022-07-29T04:57:56.505Z,6.35
2022-07-29T05:00:58.768Z,3.13
2022-07-29T05:04:00.941Z,4.90
2022-07-29T05:07:03.034Z,6.85
2022-07-29T05:10:05.473Z,4.22
2022-07-29T05:13:08.600Z,5.40
2022-07-29T05:19:14.510Z,7.35
2022-07-29T05:22:16.869Z,7.40
2022-07-29T05:25:18.855Z,3.38
2022-07-29T05:28:20.779Z,3.63
2022-07-29T05:31:22.771Z,8.73
2022-07-29T05:34:26.123Z,6.90
2022-07-29T05:37:28.072Z,8.35
2022-07-29T05:40:30.105Z,6.18
2022-07-29T05:43:32.304Z,3.42
2022-07-29T05:46:34.343Z,3.85
2022-07-29T05:49:36.423Z,3.55
2022-07-29T05:52:38.425Z,6.13
2022-07-29T05:55:40.428Z,3.35
2022-07-29T05:58:42.465Z,5.97
2022-07-29T06:01:44.409Z,3.97
2022-07-29T06:04:46.591Z,4.28
2022-07-29T06:07:50.630Z,2.45
2022-07-29T06:10:53.696Z,5.20
2022-07-29T06:13:55.606Z,4.05
2022-07-29T06:16:57.596Z,4.80
2022-07-29T06:19:59.482Z,6.90
2022-07-29T07:17:15.768Z,3.90
2022-07-29T07:20:18.710Z,3.50
2022-07-29T07:23:20.767Z,7.28
2022-07-29T07:26:22.791Z,9.77
2022-07-29T07:29:24.790Z,2.88
2022-07-29T07:32:26.834Z,4.07
2022-07-29T07:35:29.446Z,5.78
2022-07-29T07:38:31.358Z,11.27
2022-07-29T07:41:33.436Z,3.97
2022-07-29T07:44:51.376Z,7.13
2022-07-29T07:47:57.283Z,4.88
2022-07-29T07:50:59.211Z,4.82
2022-07-29T07:54:01.754Z,6.22
2022-07-29T07:57:04.651Z,7.38
2022-07-29T08:00:07.456Z,6.07
2022-07-29T08:03:16.712Z,7.15
2022-07-29T08:06:19.279Z,5.35
2022-07-29T08:09:30.314Z,8.05
2022-07-29T08:12:32.695Z,5.45
2022-07-29T08:15:35.116Z,3.30
2022-07-29T08:18:37.225Z,4.88
2022-07-29T08:21:39.521Z,3.50
2022-07-29T08:24:44.346Z,8.10
2022-07-29T08:27:46.232Z,4.72
2022-07-29T08:30:48.405Z,6.75
2022-07-29T08:33:51.529Z,5.93
2022-07-29T08:36:53.487Z,8.80
2022-07-29T08:39:55.400Z,3.50
2022-07-29T08:42:57.573Z,4.35
2022-07-29T08:45:59.680Z,7.30
2022-07-29T08:49:03.253Z,7.30
2022-07-29T08:52:05.444Z,3.47
2022-07-29T08:55:09.669Z,4.13
2022-07-29T08:58:12.533Z,3.55
2022-07-29T09:01:36.034Z,5.82
2022-07-29T09:04:44.386Z,5.93
2022-07-29T09:07:49.047Z,2.20
2022-07-29T09:10:52.222Z,3.25
2022-07-29T09:13:54.144Z,13.30
2022-07-29T09:16:57.567Z,4.43
2022-07-29T09:20:11.254Z,2.55
2022-07-29T09:23:14.394Z,3.47
2022-07-29T09:26:30.450Z,3.92
2022-07-29T09:29:36.073Z,4.85
2022-07-29T09:33:04.946Z,4.07
2022-07-29T09:36:09.131Z,3.50
2022-07-29T09:39:11.637Z,7.80
2022-07-29T09:42:14.432Z,6.25
2022-07-29T09:45:35.212Z,2.30
2022-07-29T09:48:37.148Z,5.32
2022-07-29T09:51:39.599Z,3.28
2022-07-29T09:54:41.569Z,3.40
2022-07-29T09:57:44.739Z,1.90
2022-07-29T10:00:48.025Z,3.88
2022-07-29T10:03:53.820Z,1.67
2022-07-29T10:07:04.632Z,3.33
2022-07-29T10:10:07.702Z,4.57
2022-07-29T10:13:16.633Z,2.45
2022-07-29T10:16:19.068Z,5.22
2022-07-29T10:19:21.590Z,2.13
2022-07-29T10:22:51.499Z,5.35
2022-07-29T10:25:47.053Z,3.53
2022-07-29T10:28:49.092Z,2.45
2022-07-29T10:32:30.914Z,2.83
2022-07-29T10:35:53.021Z,4.07
2022-07-29T10:39:41.779Z,2.28
2022-07-29T10:42:47.461Z,6.13
2022-07-29T10:45:55.962Z,7.25
2022-07-29T10:49:24.742Z,7.07
2022-07-29T10:52:59.530Z,5.57
2022-07-29T10:56:01.556Z,4.10
2022-07-29T10:59:25.090Z,5.63
2022-07-29T11:02:41.917Z,6.78
2022-07-29T11:06:02.369Z,2.35
2022-07-29T11:09:19.937Z,2.45
2022-07-29T11:12:48.377Z,3.60
2022-07-29T11:15:55.334Z,1.85
2022-07-29T11:19:13.201Z,3.20
2022-07-29T11:22:36.967Z,8.07
2022-07-29T11:25:52.443Z,2.97
2022-07-29T11:28:58.750Z,4.30
2022-07-29T11:32:15.848Z,2.25
2022-07-29T11:35:38.577Z,3.50
2022-07-29T11:38:42.457Z,4.72
2022-07-29T11:41:45.513Z,1.48
2022-07-29T11:45:08.496Z,2.28
2022-07-29T11:48:28.640Z,2.15
2022-07-29T11:51:33.970Z,4.10
2022-07-29T11:54:38.698Z,6.83
2022-07-29T11:58:04.071Z,6.35
2022-07-29T12:01:07.408Z,4.72
2022-07-29T12:07:15.614Z,2.50
2022-07-29T12:10:19.540Z,5.13
2022-07-29T12:13:23.061Z,6.90
2022-07-29T12:16:39.842Z,2.83
2022-07-29T12:19:46.272Z,3.85
2022-07-29T12:22:50.276Z,1.58
2022-07-29T12:25:52.318Z,4.68
2022-07-29T12:28:56.680Z,2.80
2022-07-29T12:32:00.388Z,4.38
2022-07-29T12:35:10.970Z,3.50
2022-07-29T12:38:13.861Z,3.33
2022-07-29T12:44:17.611Z,3.88
2022-07-29T12:47:20.980Z,2.78
2022-07-29T12:50:26.235Z,2.80
2022-07-29T12:53:29.432Z,2.97
2022-07-29T13:00:04.014Z,3.22
2022-07-29T13:03:07.245Z,4.28
2022-07-29T13:06:32.665Z,1.48
2022-07-29T13:09:46.629Z,7.22
2022-07-29T13:13:09.862Z,3.42
2022-07-29T13:19:14.031Z,4.32
2022-07-29T13:22:18.518Z,16.17
2022-07-29T13:25:32.709Z,10.00
2022-07-29T13:28:35.302Z,16.67
2022-07-29T13:31:37.186Z,3.90
2022-07-29T13:34:39.126Z,3.58
2022-07-29T13:37:41.909Z,2.25
2022-07-29T13:43:45.769Z,2.03
2022-07-29T13:46:52.156Z,4.40
2022-07-29T13:49:54.383Z,4.00
2022-07-29T13:52:56.448Z,4.65
2022-07-29T13:55:58.367Z,4.53
2022-07-29T13:59:00.290Z,3.45
2022-07-29T14:02:02.249Z,2.95
2022-07-29T14:05:08.238Z,6.25
2022-07-29T14:08:11.247Z,5.35
2022-07-29T14:11:13.195Z,2.33
2022-07-29T14:14:15.114Z,7.75
2022-07-29T14:17:18.328Z,4.95
2022-07-29T14:20:21.586Z,4.35
2022-07-29T14:23:23.616Z,4.32
2022-07-29T14:26:25.547Z,4.43
2022-07-29T14:29:37.455Z,5.47
2022-07-29T14:32:40.577Z,3.42
2022-07-29T14:35:42.535Z,5.75
2022-07-29T14:38:44.781Z,2.80
2022-07-29T14:41:46.717Z,2.33
2022-07-29T14:44:50.337Z,6.30
2022-07-29T14:47:57.289Z,5.07
2022-07-29T14:51:04.415Z,4.32
2022-07-29T14:54:06.920Z,7.65
2022-07-29T14:57:09.780Z,3.83
2022-07-29T15:00:12.692Z,4.68
2022-07-29T15:03:23.724Z,4.75
2022-07-29T15:06:26.666Z,4.90
2022-07-29T15:09:28.599Z,8.07
2022-07-29T15:12:30.670Z,4.72
2022-07-29T15:15:32.616Z,6.67
2022-07-29T15:18:34.578Z,5.38
2022-07-29T15:21:41.597Z,4.38
2022-07-29T15:24:50.843Z,4.00
2022-07-29T15:27:55.663Z,1.77
2022-07-29T15:31:01.148Z,8.23
2022-07-29T15:34:06.301Z,7.32
2022-07-29T15:37:08.995Z,2.17
2022-07-29T15:40:11.894Z,3.05
2022-07-29T15:46:36.367Z,4.40
2022-07-29T15:49:48.368Z,5.10
2022-07-29T15:52:51.213Z,6.88
2022-07-29T15:55:53.206Z,7.57
2022-07-29T15:58:55.124Z,3.78
2022-07-29T16:01:57.554Z,8.52
2022-07-29T16:04:59.537Z,6.80
2022-07-29T16:08:01.512Z,3.75
2022-07-29T16:11:03.902Z,4.00
2022-07-29T16:14:06.114Z,9.55
2022-07-29T16:17:14.841Z,7.35
2022-07-29T16:20:17.264Z,9.10
2022-07-29T16:23:19.361Z,6.13
2022-07-29T16:26:21.335Z,6.00
2022-07-29T16:29:23.223Z,8.98
2022-07-29T16:32:25.234Z,4.70
2022-07-29T16:35:39.106Z,4.57
2022-07-29T16:38:47.495Z,9.15
2022-07-29T16:41:49.796Z,5.28
2022-07-29T16:44:51.841Z,4.80
2022-07-29T16:48:00.034Z,3.10
2022-07-29T16:51:02.402Z,4.25
2022-07-29T16:54:04.854Z,5.35
2022-07-29T16:57:06.894Z,9.02
2022-07-29T17:00:09.483Z,4.27
2022-07-29T17:03:11.444Z,5.22
2022-07-29T17:06:15.363Z,4.53
2022-07-29T17:09:17.328Z,2.33
2022-07-29T17:12:19.766Z,3.53
2022-07-29T17:15:36.363Z,3.63
2022-07-29T17:18:38.521Z,2.67
2022-07-29T17:21:49.218Z,4.20
2022-07-29T17:24:52.050Z,4.82
2022-07-29T17:28:00.534Z,3.75
2022-07-29T17:31:02.836Z,10.90
2022-07-29T17:34:06.591Z,9.07
2022-07-29T17:37:10.742Z,5.60
2022-07-29T17:40:12.794Z,8.27
2022-07-29T17:43:14.756Z,6.38
2022-07-29T17:46:18.054Z,5.85
2022-07-29T17:49:20.041Z,6.75
2022-07-29T17:52:22.007Z,5.53
2022-07-29T17:55:23.890Z,3.75
2022-07-29T17:58:26.120Z,8.50
2022-07-29T18:01:28.576Z,9.53
2022-07-29T18:04:31.543Z,14.68
2022-07-29T18:07:33.801Z,7.22
2022-07-29T18:10:36.163Z,11.17
2022-07-29T18:13:39.207Z,8.18
2022-07-29T18:19:43.026Z,6.07
2022-07-29T18:22:45.007Z,15.15
2022-07-29T18:25:47.218Z,8.68
2022-07-29T18:28:49.171Z,7.03
2022-07-29T18:31:51.074Z,7.35
2022-07-29T18:34:53.102Z,13.20
2022-07-29T18:38:01.108Z,13.10
2022-07-29T18:41:04.472Z,12.32
2022-07-29T18:44:06.408Z,6.07
2022-07-29T18:47:08.349Z,10.98
2022-07-29T18:50:13.940Z,5.93
2022-07-29T18:53:15.925Z,8.30
2022-07-29T18:56:17.840Z,8.60
2022-07-29T18:59:21.450Z,11.85
2022-07-29T19:02:23.652Z,13.35
2022-07-29T19:05:25.666Z,11.37
2022-07-29T19:08:27.551Z,8.75
2022-07-29T19:11:29.470Z,7.50
2022-07-29T19:14:31.733Z,11.13
2022-07-29T19:17:33.694Z,11.23
2022-07-29T19:20:35.976Z,7.05
2022-07-29T19:24:05.821Z,8.67
2022-07-29T19:27:00.040Z,9.73
2022-07-29T19:30:03.524Z,8.43
2022-07-29T19:33:05.478Z,10.32
2022-07-29T19:36:07.618Z,7.55
2022-07-29T19:39:10.426Z,13.63
2022-07-29T19:42:12.420Z,10.85
2022-07-29T19:45:14.353Z,10.13
2022-07-29T19:48:16.346Z,16.08
2022-07-29T19:51:18.252Z,13.65
2022-07-29T19:54:20.880Z,13.00
2022-07-29T19:57:22.892Z,12.57
2022-07-29T20:00:26.288Z,15.02
2022-07-29T20:03:29.027Z,14.00
2022-07-29T20:06:36.809Z,17.00
2022-07-29T20:09:40.768Z,11.00
2022-07-29T20:12:42.884Z,15.38
2022-07-29T20:15:45.681Z,20.23
2022-07-29T20:18:47.599Z,11.68
2022-07-29T20:21:51.526Z,12.70
2022-07-29T20:24:53.502Z,16.77
2022-07-29T20:27:55.493Z,15.25
2022-07-29T20:30:57.636Z,15.65
2022-07-29T20:34:00.571Z,12.23
2022-07-29T20:37:02.890Z,13.80
2022-07-29T20:40:05.980Z,10.45
2022-07-29T20:43:14.615Z,11.68
2022-07-29T20:46:16.824Z,11.45
2022-07-29T20:49:18.950Z,23.73
2022-07-29T20:52:21.699Z,9.20
2022-07-29T20:55:23.651Z,14.75
2022-07-29T20:58:26.893Z,16.77
2022-07-29T21:04:31.083Z,13.85
2022-07-29T21:07:34.812Z,15.77
2022-07-29T21:10:36.789Z,12.43
2022-07-29T21:13:39.949Z,10.07
2022-07-29T21:19:43.752Z,11.00
2022-07-29T21:22:45.986Z,11.75
2022-07-29T21:25:47.939Z,10.80
2022-07-29T21:28:50.132Z,9.55
2022-07-29T21:31:52.634Z,17.75
2022-07-29T21:34:54.642Z,14.82
2022-07-29T21:37:56.574Z,14.65
2022-07-29T21:40:59.357Z,14.05
2022-07-29T21:44:01.646Z,10.57
2022-07-29T21:47:05.464Z,9.07
2022-07-29T21:50:08.112Z,13.80
2022-07-29T21:53:10.395Z,11.63
2022-07-29T21:56:15.757Z,7.50
2022-07-29T21:59:20.061Z,14.63
2022-07-29T22:02:22.021Z,9.75
2022-07-29T22:05:24.168Z,10.02
2022-07-29T22:08:26.158Z,13.65
2022-07-29T22:11:28.079Z,10.82
2022-07-29T22:14:30.005Z,16.10
2022-07-29T22:17:31.879Z,12.18
2022-07-29T22:20:34.253Z,10.15
2022-07-29T22:23:36.764Z,10.73
2022-07-29T22:26:39.194Z,12.35
2022-07-29T22:29:41.132Z,7.10
2022-07-29T22:32:43.308Z,10.38
2022-07-29T22:35:48.572Z,8.07
2022-07-29T22:38:52.065Z,8.57
2022-07-29T22:41:54.182Z,7.70
2022-07-29T22:44:56.193Z,11.88
2022-07-29T22:47:59.184Z,8.75
2022-07-29T22:51:01.494Z,6.47
2022-07-29T22:54:04.496Z,9.73
2022-07-29T22:57:06.725Z,7.00
2022-07-29T23:00:09.895Z,7.22
2022-07-29T23:03:11.827Z,6.28
2022-07-29T23:06:13.886Z,9.63
2022-07-29T23:09:15.936Z,7.57
2022-07-29T23:12:18.257Z,9.35
2022-07-29T23:15:20.370Z,9.00
2022-07-29T23:18:22.345Z,8.70
2022-07-29T23:21:24.676Z,7.47
2022-07-29T23:24:26.602Z,6.90
2022-07-29T23:27:28.582Z,8.90
2022-07-29T23:30:30.897Z,7.07
2022-07-29T23:33:32.851Z,6.27
2022-07-29T23:36:34.754Z,8.32
2022-07-29T23:39:37.045Z,11.48
2022-07-29T23:42:38.972Z,7.07
2022-07-29T23:45:44.957Z,4.28
2022-07-29T23:48:50.571Z,7.85
2022-07-29T23:51:52.536Z,6.43
2022-07-29T23:54:54.982Z,7.97
2022-07-29T23:58:17.036Z,7.72
